Time;durP1;ratioP1;P1;durP2;ratioP2;P2;SDS_P1;SDS_P2;PMS_P1;PMS_P2;Temp;Humidity;BMP_temperature;BMP_pressure;BME280_temperature;BME280_humidity;BME280_pressure;Samples;Min_cycle;Max_cycle;Signal;HPM_P1;HPM_P2
2021/04/03 00:02:01;;;;;;;34.90;14.00;;;;;;;7.81;44.14;99697.25;3590251;40;20083;-71
2021/04/03 00:04:47;;;;;;;29.85;12.52;;;;;;;7.73;44.47;99699.31;3593768;39;20083;-72
2021/04/03 00:07:32;;;;;;;33.92;14.98;;;;;;;7.65;44.52;99691.72;3590585;39;20165;-71
2021/04/03 00:10:20;;;;;;;35.67;14.98;;;;;;;7.62;44.59;99690.09;3591384;39;20080;-72
2021/04/03 00:13:05;;;;;;;29.08;13.60;;;;;;;7.60;44.77;99693.66;3589554;40;20075;-72
2021/04/03 00:15:50;;;;;;;34.00;12.23;;;;;;;7.58;44.96;99698.09;3589132;39;20186;-72
2021/04/03 00:18:35;;;;;;;21.92;11.55;;;;;;;7.56;44.86;99702.50;3593680;40;20079;-72
2021/04/03 00:21:20;;;;;;;22.73;10.93;;;;;;;7.57;44.80;99705.06;3588972;40;20370;-71
2021/04/03 00:24:06;;;;;;;22.35;10.90;;;;;;;7.60;44.76;99701.47;3589163;39;20071;-71
2021/04/03 00:26:50;;;;;;;22.20;10.48;;;;;;;7.61;44.90;99701.44;3587141;39;20159;-71
2021/04/03 00:29:36;;;;;;;25.50;11.23;;;;;;;7.59;45.06;99698.03;3585518;39;20146;-71
2021/04/03 00:32:22;;;;;;;21.98;10.40;;;;;;;7.61;44.94;99701.44;3588803;39;20162;-70
2021/04/03 00:35:09;;;;;;;22.45;11.35;;;;;;;7.63;45.06;99699.63;3591351;40;20063;-71
2021/04/03 00:37:56;;;;;;;22.02;10.93;;;;;;;7.65;45.27;99699.56;3590631;39;20181;-71
2021/04/03 00:40:44;;;;;;;21.73;10.63;;;;;;;7.71;45.17;99690.69;3590448;39;20546;-71
2021/04/03 00:43:28;;;;;;;20.27;10.82;;;;;;;7.78;45.13;99698.22;3592248;40;20163;-71
2021/04/03 00:46:14;;;;;;;21.85;11.13;;;;;;;7.81;45.12;99700.72;3587252;39;20194;-71
2021/04/03 00:49:02;;;;;;;20.65;11.35;;;;;;;7.83;45.37;99701.53;3587282;39;20087;-71
2021/04/03 00:51:46;;;;;;;24.63;11.82;;;;;;;7.84;45.25;99702.38;3588797;39;20169;-71
2021/04/03 00:54:31;;;;;;;22.27;11.50;;;;;;;7.82;45.60;99693.75;3592905;40;20545;-71
2021/04/03 00:57:17;;;;;;;30.73;13.40;;;;;;;7.77;45.78;99695.69;3591172;40;20079;-71
2021/04/03 01:00:02;;;;;;;26.33;12.68;;;;;;;7.75;45.88;99690.50;3592913;39;20168;-78
2021/04/03 01:02:48;;;;;;;27.60;13.80;;;;;;;7.77;45.95;99691.31;3589032;39;20166;-79
2021/04/03 01:05:33;;;;;;;29.02;12.73;;;;;;;7.82;45.75;99691.13;3586708;39;20068;-78
2021/04/03 01:08:18;;;;;;;26.83;13.13;;;;;;;7.83;45.71;99696.31;3589217;40;20075;-79
2021/04/03 01:11:04;;;;;;;23.42;12.70;;;;;;;7.82;46.01;99683.31;3588721;39;20088;-78
2021/04/03 01:14:08;;;;;;;25.38;11.90;;;;;;;7.75;46.23;99684.44;3592875;39;20324;-77
2021/04/03 01:17:03;;;;;;;23.30;11.30;;;;;;;7.69;46.34;99688.09;3588625;40;20079;-76
2021/04/03 01:20:07;;;;;;;23.77;11.88;;;;;;;7.65;46.59;99695.19;3594284;39;20099;-75
2021/04/03 01:23:34;;;;;;;26.00;12.85;;;;;;;7.64;46.65;99695.25;3590803;39;20308;-75
2021/04/03 01:26:48;;;;;;;25.02;12.27;;;;;;;7.66;46.66;99688.22;3589113;39;20420;-75
2021/04/03 01:30:03;;;;;;;24.70;12.52;;;;;;;7.69;46.74;99682.88;3591933;39;20490;-75
2021/04/03 01:32:59;;;;;;;22.88;12.15;;;;;;;7.71;46.75;99690.69;3594659;39;20072;-75
2021/04/03 01:35:49;;;;;;;23.63;12.85;;;;;;;7.71;46.96;99685.47;3595660;39;20067;-75
2021/04/03 01:38:37;;;;;;;32.28;13.85;;;;;;;7.72;46.88;99689.78;3591980;40;20150;-75
2021/04/03 01:41:24;;;;;;;29.75;14.40;;;;;;;7.70;47.29;99695.03;3593484;40;20192;-75
2021/04/03 01:44:12;;;;;;;30.65;13.32;;;;;;;7.61;47.42;99691.00;3594972;40;20412;-74
2021/04/03 01:47:00;;;;;;;27.58;13.13;;;;;;;7.50;47.80;99695.75;3594781;40;20402;-74
2021/04/03 01:49:49;;;;;;;26.02;13.45;;;;;;;7.42;48.00;99695.13;3595778;39;20102;-76
2021/04/03 01:52:34;;;;;;;26.33;13.43;;;;;;;7.37;48.31;99701.44;3592126;39;20145;-75
2021/04/03 01:55:20;;;;;;;29.88;14.48;;;;;;;7.36;48.47;99700.56;3590712;39;20072;-71
2021/04/03 01:58:05;;;;;;;32.67;14.02;;;;;;;7.33;48.59;99700.69;3595863;40;20091;-72
2021/04/03 02:00:51;;;;;;;25.40;12.93;;;;;;;7.30;48.82;99698.19;3595336;39;20201;-71
2021/04/03 02:03:38;;;;;;;32.42;14.35;;;;;;;7.22;49.06;99687.13;3594012;39;20176;-72
2021/04/03 02:06:23;;;;;;;29.08;13.68;;;;;;;7.16;48.96;99693.41;3595002;40;20079;-72
2021/04/03 02:09:11;;;;;;;34.75;14.82;;;;;;;7.16;49.29;99692.56;3593892;40;20317;-72
2021/04/03 02:11:59;;;;;;;26.27;13.25;;;;;;;7.18;49.25;99698.59;3591948;39;20759;-72
2021/04/03 02:14:48;;;;;;;31.95;13.20;;;;;;;7.21;49.21;99698.47;3593360;39;20071;-72
2021/04/03 02:17:36;;;;;;;26.42;13.52;;;;;;;7.22;49.24;99693.22;3589173;39;20076;-71
2021/04/03 02:20:21;;;;;;;30.83;13.57;;;;;;;7.24;49.22;99690.53;3587705;39;20100;-71
2021/04/03 02:23:08;;;;;;;24.48;14.02;;;;;;;7.23;49.49;99689.69;3592316;40;20075;-71
2021/04/03 02:25:55;;;;;;;28.08;13.65;;;;;;;7.21;49.62;99690.66;3592820;39;20317;-71
2021/04/03 02:28:40;;;;;;;28.63;13.57;;;;;;;7.20;49.60;99699.38;3589305;39;20174;-70
2021/04/03 02:31:26;;;;;;;26.60;13.00;;;;;;;7.19;49.57;99689.84;3590772;39;20094;-72
2021/04/03 02:34:13;;;;;;;24.63;12.63;;;;;;;7.22;49.57;99692.34;3592735;39;20239;-71
2021/04/03 02:36:58;;;;;;;28.13;13.80;;;;;;;7.29;49.80;99686.06;3589966;40;20162;-71
2021/04/03 02:39:43;;;;;;;25.30;13.07;;;;;;;7.39;49.30;99697.84;3589110;39;20174;-72
2021/04/03 02:42:29;;;;;;;23.85;11.98;;;;;;;7.43;49.31;99694.25;3590590;39;20508;-71
2021/04/03 02:45:18;;;;;;;25.38;14.05;;;;;;;7.43;49.62;99694.25;3588589;39;20118;-72
2021/04/03 02:48:09;;;;;;;25.20;13.05;;;;;;;7.48;49.58;99697.53;3590188;40;20257;-72
2021/04/03 02:50:55;;;;;;;;;;;;;;;7.66;48.73;99693.44;3588279;39;20349;-69
2021/04/03 02:53:42;;;;;;;24.13;11.50;;;;;;;7.56;48.92;99692.91;3591762;39;19950;-71
2021/04/03 02:56:28;;;;;;;21.33;10.70;;;;;;;7.56;49.18;99698.13;3591232;39;20067;-71
2021/04/03 02:59:18;;;;;;;18.35;10.68;;;;;;;7.62;49.33;99702.28;3590872;39;20408;-71
2021/04/03 03:02:07;;;;;;;20.55;10.63;;;;;;;7.65;49.29;99697.81;3589548;39;20076;-71
2021/04/03 03:04:54;;;;;;;21.77;10.40;;;;;;;7.73;49.14;99701.91;3591079;39;20145;-72
2021/04/03 03:07:41;;;;;;;16.42;9.40;;;;;;;7.77;49.17;99704.34;3585880;40;20079;-72
2021/04/03 03:10:29;;;;;;;15.05;9.68;;;;;;;7.80;49.31;99703.41;3587873;39;20103;-73
2021/04/03 03:13:16;;;;;;;18.15;9.45;;;;;;;7.79;49.56;99706.91;3593468;40;20072;-73
2021/04/03 03:16:02;;;;;;;17.98;9.40;;;;;;;7.78;49.67;99705.22;3592281;40;20088;-71
2021/04/03 03:18:48;;;;;;;19.75;10.25;;;;;;;7.79;49.47;99705.16;3587743;39;20156;-72
2021/04/03 03:21:32;;;;;;;15.13;8.15;;;;;;;7.82;50.19;99704.19;3591467;39;20081;-72
2021/04/03 03:24:18;;;;;;;13.65;8.35;;;;;;;7.79;50.31;99710.38;3594131;39;20177;-71
2021/04/03 03:27:08;;;;;;;14.38;8.13;;;;;;;7.77;50.35;99709.56;3590967;39;20083;-70
2021/04/03 03:29:53;;;;;;;16.88;8.07;;;;;;;7.77;50.72;99711.34;3592393;39;20094;-71
2021/04/03 03:32:38;;;;;;;12.75;7.35;;;;;;;7.75;50.69;99713.16;3591135;40;20074;-70
2021/04/03 03:35:23;;;;;;;11.77;6.60;;;;;;;7.73;50.63;99714.97;3591383;39;20414;-71
2021/04/03 03:38:09;;;;;;;12.98;5.97;;;;;;;7.69;51.40;99714.19;3594311;40;20079;-71
2021/04/03 03:40:55;;;;;;;13.43;6.07;;;;;;;7.64;51.45;99716.97;3589088;40;20107;-71
2021/04/03 03:43:41;;;;;;;8.70;4.93;;;;;;;7.56;51.79;99715.53;3588510;39;20166;-71
2021/04/03 03:46:26;;;;;;;7.82;5.35;;;;;;;7.49;51.69;99720.09;3591452;39;20083;-72
2021/04/03 03:49:10;;;;;;;9.48;4.45;;;;;;;7.37;51.84;99717.91;3591325;39;20173;-71
2021/04/03 03:51:55;;;;;;;11.38;4.47;;;;;;;7.29;51.82;99725.16;3586893;39;20424;-71
2021/04/03 03:54:40;;;;;;;7.38;3.83;;;;;;;7.17;51.99;99720.34;3590675;39;20209;-72
2021/04/03 03:57:24;;;;;;;7.35;4.00;;;;;;;7.07;52.08;99727.59;3589658;40;20247;-71
2021/04/03 04:00:11;;;;;;;7.13;3.85;;;;;;;7.01;52.15;99730.41;3589498;39;20177;-72
2021/04/03 04:02:55;;;;;;;8.45;4.20;;;;;;;6.99;52.44;99727.84;3592686;39;20158;-72
2021/04/03 04:05:40;;;;;;;9.23;4.25;;;;;;;6.98;52.71;99733.97;3592402;39;20072;-72
2021/04/03 04:08:25;;;;;;;8.80;4.32;;;;;;;7.02;52.88;99735.56;3594157;40;20159;-72
2021/04/03 04:11:10;;;;;;;6.05;3.28;;;;;;;6.96;52.79;99743.59;3593634;39;20070;-71
2021/04/03 04:13:55;;;;;;;8.82;4.05;;;;;;;6.90;53.14;99746.41;3592513;39;20432;-71
2021/04/03 04:16:41;;;;;;;5.57;3.20;;;;;;;6.85;53.40;99748.25;3590745;40;20123;-71
2021/04/03 04:19:25;;;;;;;6.40;3.67;;;;;;;6.76;54.04;99758.97;3587666;39;20088;-74
2021/04/03 04:22:10;;;;;;;4.60;3.35;;;;;;;6.64;54.44;99757.59;3590773;39;20091;-74
2021/04/03 04:24:54;;;;;;;5.85;3.10;;;;;;;6.53;54.71;99759.69;3588839;39;20075;-74
2021/04/03 04:27:39;;;;;;;6.32;3.10;;;;;;;6.40;55.04;99763.53;3591421;40;20169;-74
2021/04/03 04:30:24;;;;;;;6.32;3.97;;;;;;;6.24;55.48;99772.66;3591707;39;20522;-75
2021/04/03 04:33:10;;;;;;;7.50;3.88;;;;;;;6.13;55.86;99772.97;3590552;39;20067;-75
2021/04/03 04:35:55;;;;;;;5.35;3.42;;;;;;;6.05;55.95;99772.34;3590168;39;20075;-75
2021/04/03 04:38:40;;;;;;;5.75;3.78;;;;;;;5.93;56.42;99777.88;3590941;40;20204;-75
2021/04/03 04:41:24;;;;;;;6.53;3.33;;;;;;;5.91;56.69;99774.47;3589827;40;20075;-74
2021/04/03 04:44:09;;;;;;;6.00;3.55;;;;;;;5.90;56.96;99776.22;3587577;40;20583;-75
2021/04/03 04:46:54;;;;;;;6.30;3.72;;;;;;;5.87;57.12;99778.88;3591595;39;20174;-74
2021/04/03 04:49:40;;;;;;;8.82;4.97;;;;;;;5.89;57.01;99774.47;3588164;39;20074;-74
2021/04/03 04:52:25;;;;;;;6.22;3.63;;;;;;;5.89;57.34;99792.69;3585409;39;20075;-74
2021/04/03 04:55:11;;;;;;;5.97;3.90;;;;;;;5.82;57.54;99784.16;3588462;39;20072;-75
2021/04/03 04:57:55;;;;;;;7.78;3.78;;;;;;;5.76;57.62;99791.28;3587516;40;20072;-75
2021/04/03 05:00:40;;;;;;;8.63;4.15;;;;;;;5.68;57.76;99794.09;3590818;39;20180;-74
2021/04/03 05:03:25;;;;;;;8.55;4.60;;;;;;;5.61;57.94;99792.53;3591257;39;20071;-75
2021/04/03 05:06:10;;;;;;;6.78;4.20;;;;;;;5.54;58.16;99796.19;3588493;39;20156;-75
2021/04/03 05:08:55;;;;;;;6.53;4.20;;;;;;;5.48;58.24;99802.41;3593648;39;20090;-74
2021/04/03 05:11:40;;;;;;;8.05;4.78;;;;;;;5.52;58.22;99805.78;3592366;40;20071;-74
2021/04/03 05:14:25;;;;;;;7.28;4.07;;;;;;;5.53;58.13;99815.28;3591792;39;20071;-75
2021/04/03 05:17:09;;;;;;;5.68;4.10;;;;;;;5.54;58.16;99810.94;3590312;39;20423;-75
2021/04/03 05:19:54;;;;;;;6.90;4.20;;;;;;;5.56;58.07;99814.34;3588572;39;20073;-74
2021/04/03 05:22:39;;;;;;;7.25;5.10;;;;;;;5.50;58.29;99815.38;3587094;40;20225;-74
2021/04/03 05:25:24;;;;;;;9.52;4.30;;;;;;;5.52;58.28;99818.78;3591719;39;20176;-75
2021/04/03 05:28:09;;;;;;;6.75;4.07;;;;;;;5.55;58.31;99817.84;3589146;39;20317;-75
2021/04/03 05:30:54;;;;;;;9.52;4.30;;;;;;;5.53;58.40;99820.47;3589736;39;20079;-74
2021/04/03 05:33:38;;;;;;;8.45;4.72;;;;;;;5.55;58.63;99816.09;3591037;40;20083;-74
2021/04/03 05:36:23;;;;;;;7.68;4.70;;;;;;;5.58;58.77;99818.63;3590580;40;20174;-74
2021/04/03 05:39:09;;;;;;;7.85;4.80;;;;;;;5.61;58.57;99818.53;3590569;39;20075;-75
2021/04/03 05:41:54;;;;;;;7.72;4.72;;;;;;;5.69;58.63;99821.81;3589750;39;20209;-74
2021/04/03 05:44:40;;;;;;;11.27;4.90;;;;;;;5.71;58.65;99825.22;3591582;40;20071;-75
2021/04/03 05:47:25;;;;;;;8.30;5.10;;;;;;;5.84;58.63;99822.31;3591454;39;20071;-75
2021/04/03 05:50:11;;;;;;;8.40;4.80;;;;;;;6.00;58.31;99828.84;3589079;39;20405;-75
2021/04/03 05:52:58;;;;;;;7.63;4.50;;;;;;;6.06;58.16;99832.16;3587762;39;20181;-74
2021/04/03 05:55:43;;;;;;;7.68;4.60;;;;;;;6.13;58.32;99829.38;3588848;39;20176;-74
2021/04/03 05:58:28;;;;;;;9.93;4.80;;;;;;;6.26;58.37;99834.22;3589988;40;20067;-75
2021/04/03 06:01:13;;;;;;;7.80;4.97;;;;;;;6.39;58.14;99839.94;3590445;39;20083;-75
2021/04/03 06:03:58;;;;;;;8.68;4.88;;;;;;;6.46;57.96;99838.03;3592314;40;20492;-75
2021/04/03 06:06:43;;;;;;;10.68;4.50;;;;;;;6.56;58.16;99844.66;3587176;40;20087;-75
2021/04/03 06:09:28;;;;;;;9.15;6.22;;;;;;;6.64;57.90;99840.94;3590890;39;20079;-75
2021/04/03 06:12:14;;;;;;;12.13;6.38;;;;;;;6.80;58.13;99841.34;3591852;39;20174;-75
2021/04/03 06:14:59;;;;;;;15.43;8.32;;;;;;;6.93;58.05;99840.09;3591476;39;21497;-74
2021/04/03 06:17:45;;;;;;;8.05;5.32;;;;;;;6.99;58.07;99836.44;3589135;40;20075;-74
2021/04/03 06:20:31;;;;;;;10.75;6.60;;;;;;;7.14;57.77;99829.94;3592895;39;20161;-73
2021/04/03 06:23:30;;;;;;;10.60;6.47;;;;;;;7.30;57.73;99834.63;3587879;39;20166;-74
2021/04/03 06:26:22;;;;;;;10.95;6.10;;;;;;;7.36;57.42;99836.16;3587351;39;20601;-75
2021/04/03 06:29:23;;;;;;;11.43;6.40;;;;;;;7.57;57.54;99840.69;3593326;39;20075;-74
2021/04/03 06:32:10;;;;;;;10.93;5.90;;;;;;;7.86;56.89;99841.47;3589194;39;20087;-75
2021/04/03 06:34:55;;;;;;;10.15;6.03;;;;;;;8.12;56.37;99843.19;3593026;39;20590;-75
2021/04/03 06:37:40;;;;;;;10.50;6.15;;;;;;;8.37;55.90;99835.41;3592476;40;20076;-75
2021/04/03 06:40:24;;;;;;;12.88;6.90;;;;;;;8.57;55.99;99845.97;3592413;39;20505;-74
2021/04/03 06:43:14;;;;;;;10.82;6.45;;;;;;;8.57;55.96;99839.91;3590035;39;20265;-74
2021/04/03 06:46:00;;;;;;;8.90;6.22;;;;;;;8.52;56.29;99843.50;3588646;39;20181;-75
2021/04/03 06:48:45;;;;;;;10.73;6.28;;;;;;;8.58;56.28;99852.91;3589009;40;20075;-76
2021/04/03 06:51:30;;;;;;;14.63;6.82;;;;;;;8.58;56.35;99852.06;3589218;40;20079;-75
2021/04/03 06:54:15;;;;;;;10.82;6.88;;;;;;;8.64;56.08;99857.06;3588312;40;20099;-75
2021/04/03 06:57:00;;;;;;;12.57;7.88;;;;;;;8.61;56.28;99862.41;3587436;40;20173;-75
2021/04/03 06:59:46;;;;;;;10.70;7.10;;;;;;;8.65;56.22;99862.22;3589106;39;20083;-76
2021/04/03 07:02:35;;;;;;;12.35;7.13;;;;;;;8.76;55.97;99867.06;3588294;39;20106;-75
2021/04/03 07:05:21;;;;;;;11.18;7.65;;;;;;;8.68;56.18;99872.56;3587160;39;20182;-75
2021/04/03 07:08:07;;;;;;;11.50;7.25;;;;;;;8.52;56.10;99868.78;3592750;40;20075;-74
2021/04/03 07:10:53;;;;;;;18.02;9.30;;;;;;;8.47;56.51;99879.41;3587943;39;20075;-73
2021/04/03 07:13:38;;;;;;;11.63;7.68;;;;;;;8.37;56.54;99874.59;3588090;39;20448;-73
2021/04/03 07:16:23;;;;;;;11.23;7.30;;;;;;;8.42;56.30;99888.31;3591079;39;20079;-74
2021/04/03 07:19:11;;;;;;;12.48;7.82;;;;;;;8.65;56.08;99888.34;3588470;40;20514;-74
2021/04/03 07:21:56;;;;;;;14.40;7.88;;;;;;;8.91;55.51;99895.22;3589646;40;20292;-73
2021/04/03 07:24:42;;;;;;;13.05;7.32;;;;;;;8.84;55.66;99897.22;3591004;39;20303;-76
2021/04/03 07:27:27;;;;;;;12.10;6.97;;;;;;;8.76;55.98;99899.28;3591349;39;20087;-74
2021/04/03 07:30:14;;;;;;;11.68;6.97;;;;;;;8.83;55.74;99910.34;3590345;39;20219;-74
2021/04/03 07:33:06;;;;;;;10.98;7.05;;;;;;;8.99;55.50;99915.88;3587489;40;20177;-75
2021/04/03 07:35:53;;;;;;;15.50;7.90;;;;;;;9.21;54.88;99916.78;3590817;39;20161;-73
2021/04/03 07:38:38;;;;;;;10.60;6.55;;;;;;;9.33;54.66;99925.91;3588413;39;20067;-75
2021/04/03 07:41:23;;;;;;;10.68;6.90;;;;;;;9.32;54.63;99924.19;3591717;39;20182;-75
2021/04/03 07:44:13;;;;;;;10.43;6.30;;;;;;;9.23;54.92;99937.66;3586260;39;20507;-76
2021/04/03 07:46:59;;;;;;;12.55;7.03;;;;;;;9.08;55.25;99942.53;3586844;39;20111;-74
2021/04/03 07:49:45;;;;;;;10.13;6.38;;;;;;;9.02;55.27;99936.69;3588551;39;20433;-74
2021/04/03 07:52:53;;;;;;;11.77;7.10;;;;;;;8.98;55.25;99937.72;3590205;40;20329;-74
2021/04/03 07:55:39;;;;;;;11.50;7.15;;;;;;;8.90;55.07;99951.03;3591440;39;20079;-76
2021/04/03 07:58:26;;;;;;;14.85;6.68;;;;;;;8.88;55.27;99952.88;3593120;39;20510;-78
2021/04/03 08:01:11;;;;;;;10.77;6.50;;;;;;;8.96;54.65;99947.38;3588101;39;20080;-78
2021/04/03 08:03:57;;;;;;;9.13;5.97;;;;;;;9.11;54.42;99954.63;3589537;39;20309;-78
2021/04/03 08:06:43;;;;;;;7.93;5.75;;;;;;;9.58;53.53;99954.59;3593886;40;20063;-77
2021/04/03 08:09:32;;;;;;;9.15;5.78;;;;;;;10.23;52.04;99959.00;3592584;40;20091;-77
2021/04/03 08:12:22;;;;;;;11.15;6.00;;;;;;;11.21;49.80;99959.03;3588569;39;20087;-76
2021/04/03 08:15:10;;;;;;;8.43;5.63;;;;;;;11.36;49.60;99957.50;3591146;39;20066;-78
2021/04/03 08:17:55;;;;;;;10.18;6.03;;;;;;;13.36;46.31;99972.03;3591192;40;20083;-75
2021/04/03 08:20:50;;;;;;;8.68;5.28;;;;;;;17.93;37.32;99973.78;3589158;39;20163;-77
2021/04/03 08:23:38;;;;;;;8.73;5.03;;;;;;;16.70;39.44;99982.50;3588628;39;20082;-76
2021/04/03 08:26:26;;;;;;;9.25;5.85;;;;;;;16.55;40.32;99976.41;3591093;39;20079;-77
2021/04/03 08:29:21;;;;;;;7.32;5.22;;;;;;;16.33;40.23;99981.44;3584988;40;20079;-77
2021/04/03 08:32:07;;;;;;;8.82;5.55;;;;;;;14.99;42.09;99985.50;3589582;39;20079;-78
2021/04/03 08:34:52;;;;;;;15.80;8.18;;;;;;;13.79;44.26;99989.88;3586577;39;20076;-77
2021/04/03 08:37:37;;;;;;;7.88;5.05;;;;;;;12.81;45.98;100001.22;3587114;40;20071;-77
2021/04/03 08:40:29;;;;;;;7.82;4.90;;;;;;;12.21;46.25;99999.88;3593024;39;20348;-78
2021/04/03 08:43:20;;;;;;;12.43;5.50;;;;;;;12.56;45.51;100005.16;3591194;39;20068;-79
2021/04/03 08:46:08;;;;;;;8.68;5.53;;;;;;;12.73;45.11;100002.53;3587605;39;20079;-76
2021/04/03 08:48:56;;;;;;;7.75;5.75;;;;;;;12.94;44.39;100009.34;3586719;39;20088;-77
2021/04/03 08:51:40;;;;;;;6.57;4.40;;;;;;;14.04;42.18;100011.28;3587900;39;20470;-77
2021/04/03 08:54:25;;;;;;;7.07;4.60;;;;;;;20.26;32.50;100005.25;3590206;39;20150;-77
2021/04/03 08:57:22;;;;;;;5.63;3.78;;;;;;;23.00;29.04;100006.03;3589275;40;20185;-77
2021/04/03 09:00:10;;;;;;;6.13;4.35;;;;;;;26.13;24.78;100012.91;3589730;40;20182;-77
2021/04/03 09:02:56;;;;;;;5.50;4.22;;;;;;;23.69;27.12;100014.53;3589292;39;20316;-77
2021/04/03 09:05:47;;;;;;;5.97;4.15;;;;;;;19.68;32.39;100012.63;3587699;39;20174;-77
2021/04/03 09:08:32;;;;;;;;;;;;;;;17.93;36.99;100015.38;3591670;39;20154;-76
2021/04/03 09:11:17;;;;;;;7.43;4.05;;;;;;;17.64;35.94;100017.41;3585529;39;20064;-77
2021/04/03 09:14:02;;;;;;;8.27;4.32;;;;;;;18.13;34.73;100016.56;3585928;39;20102;-78
2021/04/03 09:16:48;;;;;;;11.75;4.80;;;;;;;19.11;32.54;100018.84;3590498;39;20079;-77
2021/04/03 09:19:34;;;;;;;5.78;3.85;;;;;;;21.18;29.56;100024.16;3591762;39;20106;-77
2021/04/03 09:22:21;;;;;;;6.93;3.85;;;;;;;18.98;32.17;100028.75;3588476;40;20152;-78
2021/04/03 09:25:08;;;;;;;7.53;4.80;;;;;;;18.26;32.58;100025.31;3592715;39;20107;-77
2021/04/03 09:27:58;;;;;;;5.68;4.00;;;;;;;18.89;31.11;100024.97;3592718;39;20475;-77
2021/04/03 09:30:45;;;;;;;6.10;4.03;;;;;;;21.05;28.18;100023.53;3592348;39;20222;-77
2021/04/03 09:33:31;;;;;;;8.35;3.78;;;;;;;24.71;23.41;100029.50;3590495;40;20166;-75
2021/04/03 09:36:18;;;;;;;5.63;3.78;;;;;;;26.29;21.52;100039.81;3592052;40;20241;-76
2021/04/03 09:39:12;;;;;;;5.28;4.32;;;;;;;27.64;20.27;100039.28;3591810;39;20095;-78
2021/04/03 09:41:57;;;;;;;5.20;3.67;;;;;;;25.96;22.15;100046.09;3592083;40;20092;-77
2021/04/03 09:44:42;;;;;;;4.65;3.35;;;;;;;26.79;20.66;100032.66;3592827;39;20102;-76
2021/04/03 09:47:28;;;;;;;4.82;3.50;;;;;;;27.23;20.22;100035.84;3589240;39;20250;-77
2021/04/03 09:50:14;;;;;;;4.88;3.33;;;;;;;23.84;23.21;100038.13;3589505;39;20380;-77
2021/04/03 09:53:06;;;;;;;4.47;3.13;;;;;;;20.03;27.64;100035.56;3586465;39;20368;-77
2021/04/03 09:55:51;;;;;;;4.95;3.40;;;;;;;18.12;29.52;100041.41;3588048;40;20064;-77
2021/04/03 09:58:36;;;;;;;5.55;3.67;;;;;;;17.33;31.27;100042.59;3588854;39;20414;-76
2021/04/03 10:01:21;;;;;;;4.25;3.20;;;;;;;17.41;30.44;100039.38;3595036;39;20087;-77
2021/04/03 10:04:06;;;;;;;3.40;3.10;;;;;;;17.00;31.10;100040.44;3593911;39;20188;-77
2021/04/03 10:06:52;;;;;;;4.72;3.10;;;;;;;17.20;30.49;100031.97;3590263;40;20082;-78
2021/04/03 10:09:37;;;;;;;3.65;2.85;;;;;;;17.34;29.88;100039.81;3593912;39;20087;-76
2021/04/03 10:12:23;;;;;;;4.28;2.80;;;;;;;17.26;29.92;100036.84;3592679;40;20078;-77
2021/04/03 10:15:08;;;;;;;4.65;2.60;;;;;;;16.25;30.47;100031.34;3591555;40;20300;-77
2021/04/03 10:17:53;;;;;;;4.85;2.80;;;;;;;15.78;30.68;100036.06;3591773;39;20301;-78
2021/04/03 10:20:38;;;;;;;3.80;2.58;;;;;;;15.67;30.76;100035.91;3591273;39;20193;-77
2021/04/03 10:23:24;;;;;;;4.82;3.58;;;;;;;15.20;31.15;100033.50;3589754;39;20075;-77
2021/04/03 10:26:10;;;;;;;5.40;2.80;;;;;;;15.04;31.74;100027.47;3591147;39;20079;-77
2021/04/03 10:28:54;;;;;;;2.83;2.50;;;;;;;14.79;31.64;100034.22;3589047;39;20313;-77
2021/04/03 10:31:40;;;;;;;3.22;2.92;;;;;;;14.32;31.90;100032.50;3588730;39;20075;-78
2021/04/03 10:34:25;;;;;;;3.90;2.88;;;;;;;14.15;32.12;100029.13;3588466;39;20152;-79
2021/04/03 10:37:10;;;;;;;3.53;2.60;;;;;;;14.25;31.63;100025.91;3588349;40;20075;-78
2021/04/03 10:39:56;;;;;;;2.83;2.05;;;;;;;14.54;30.92;100026.03;3593964;39;20078;-78
2021/04/03 10:42:42;;;;;;;4.65;2.60;;;;;;;15.04;30.45;100041.53;3592401;39;20079;-77
2021/04/03 10:45:27;;;;;;;5.00;2.35;;;;;;;15.14;29.86;100033.88;3592172;39;20079;-76
2021/04/03 10:48:13;;;;;;;3.22;2.42;;;;;;;15.31;29.44;100038.16;3595492;40;20075;-76
2021/04/03 10:50:57;;;;;;;4.32;2.42;;;;;;;15.36;29.89;100036.06;3592156;39;20193;-75
2021/04/03 10:53:42;;;;;;;3.80;2.85;;;;;;;15.55;29.83;100026.91;3591817;39;20429;-77
2021/04/03 10:56:28;;;;;;;5.28;2.65;;;;;;;15.67;29.44;100029.78;3593648;39;20075;-79
2021/04/03 10:59:13;;;;;;;3.78;2.53;;;;;;;16.01;29.14;100024.03;3594030;39;20448;-77
2021/04/03 11:01:58;;;;;;;4.35;2.72;;;;;;;16.29;28.91;100023.09;3591112;39;20058;-77
2021/04/03 11:04:42;;;;;;;2.63;2.15;;;;;;;16.19;28.25;100021.16;3594653;40;20348;-77
2021/04/03 11:07:27;;;;;;;4.75;2.85;;;;;;;15.38;29.22;100019.19;3593619;40;20212;-77
2021/04/03 11:10:13;;;;;;;3.40;2.35;;;;;;;14.44;30.11;100009.91;3594661;39;20169;-78
2021/04/03 11:12:59;;;;;;;3.63;2.70;;;;;;;13.68;31.21;100015.03;3592554;39;20447;-71
2021/04/03 11:15:46;;;;;;;9.05;4.80;;;;;;;13.40;31.61;100015.69;3590856;39;20173;-72
2021/04/03 11:18:33;;;;;;;3.10;2.45;;;;;;;13.11;31.79;100014.53;3594227;40;20139;-73
2021/04/03 11:21:19;;;;;;;3.50;2.50;;;;;;;12.82;31.85;100018.69;3591482;40;20419;-79
2021/04/03 11:24:05;;;;;;;4.93;2.58;;;;;;;13.01;31.91;100015.13;3591750;39;20067;-78
2021/04/03 11:26:50;;;;;;;4.35;2.28;;;;;;;13.40;31.25;100020.09;3591102;39;20332;-70
2021/04/03 11:29:36;;;;;;;5.70;3.35;;;;;;;13.69;30.93;100022.00;3589117;39;20084;-71
2021/04/03 11:32:21;;;;;;;5.68;2.72;;;;;;;13.39;30.99;100039.47;3589170;40;20071;-70
2021/04/03 11:35:07;;;;;;;3.60;2.17;;;;;;;12.74;32.58;100056.84;3593384;39;20257;-71
2021/04/03 11:37:52;;;;;;;4.47;3.03;;;;;;;12.01;34.91;100079.66;3588885;40;20072;-71
2021/04/03 11:40:37;;;;;;;2.58;2.08;;;;;;;10.94;37.61;100107.16;3592948;39;20112;-71
2021/04/03 11:43:23;;;;;;;4.78;1.92;;;;;;;9.91;40.34;100113.00;3590987;39;20075;-71
2021/04/03 11:46:09;;;;;;;4.10;2.33;;;;;;;9.33;42.02;100125.56;3589787;39;20192;-71
2021/04/03 11:48:54;;;;;;;3.33;2.13;;;;;;;8.76;42.87;100124.06;3586937;39;20250;-71
2021/04/03 11:51:42;;;;;;;4.32;2.13;;;;;;;8.11;44.25;100128.69;3590092;40;20074;-70
2021/04/03 11:54:27;;;;;;;3.33;2.38;;;;;;;7.63;45.40;100132.69;3590868;39;20091;-71
2021/04/03 11:57:12;;;;;;;6.47;2.60;;;;;;;7.33;46.31;100136.16;3588412;39;20078;-70
2021/04/03 11:59:57;;;;;;;5.13;2.50;;;;;;;7.11;47.11;100137.63;3592858;40;20189;-71
2021/04/03 12:02:42;;;;;;;4.70;2.33;;;;;;;6.88;48.13;100144.28;3588027;39;20193;-70
2021/04/03 12:05:27;;;;;;;4.47;2.10;;;;;;;6.77;48.38;100129.78;3586301;39;20174;-71
2021/04/03 12:08:12;;;;;;;4.65;2.70;;;;;;;6.80;48.67;100125.34;3586389;40;20202;-71
2021/04/03 12:10:56;;;;;;;5.40;3.00;;;;;;;7.12;48.51;100121.06;3590152;39;20173;-71
2021/04/03 12:13:41;;;;;;;3.85;2.70;;;;;;;7.56;48.03;100110.28;3591474;39;20075;-71
2021/04/03 12:16:27;;;;;;;3.85;2.80;;;;;;;7.99;47.47;100092.53;3587041;39;20205;-71
2021/04/03 12:19:13;;;;;;;5.05;2.70;;;;;;;8.35;47.19;100085.34;3593684;39;20343;-71
2021/04/03 12:21:58;;;;;;;6.38;2.95;;;;;;;8.81;46.89;100082.06;3590002;39;20165;-71
2021/04/03 12:24:42;;;;;;;2.85;2.50;;;;;;;9.38;45.97;100091.44;3592366;39;20392;-71
2021/04/03 12:27:27;;;;;;;7.30;4.00;;;;;;;9.84;45.89;100090.59;3591856;40;20595;-70
2021/04/03 12:30:13;;;;;;;12.77;6.68;;;;;;;9.98;46.53;100093.50;3592825;39;20067;-71
2021/04/03 12:32:59;;;;;;;19.40;9.18;;;;;;;10.20;47.13;100098.78;3588935;39;20333;-77
2021/04/03 12:35:45;;;;;;;7.45;4.25;;;;;;;10.23;46.80;100092.63;3588612;39;20172;-78
2021/04/03 12:38:30;;;;;;;6.45;3.55;;;;;;;10.30;46.66;100084.44;3590760;40;20273;-71
2021/04/03 12:41:15;;;;;;;4.30;2.90;;;;;;;10.32;46.51;100085.22;3589804;39;20403;-71
2021/04/03 12:44:00;;;;;;;5.10;1.92;;;;;;;10.24;46.56;100084.69;3587744;40;20103;-71
2021/04/03 12:46:45;;;;;;;1.65;1.55;;;;;;;10.03;46.34;100088.13;3590610;40;20286;-71
2021/04/03 12:49:30;;;;;;;3.20;1.90;;;;;;;9.97;47.26;100085.72;3591021;39;20074;-70
2021/04/03 12:52:16;;;;;;;3.88;2.20;;;;;;;9.89;46.96;100080.78;3585284;39;20071;-71
2021/04/03 12:55:01;;;;;;;2.95;1.92;;;;;;;9.80;46.82;100083.75;3590396;39;20095;-71
2021/04/03 12:57:46;;;;;;;3.33;2.30;;;;;;;9.76;47.21;100084.75;3590544;40;20122;-70
2021/04/03 13:00:31;;;;;;;4.03;2.55;;;;;;;9.80;47.74;100078.53;3591200;39;20141;-71
2021/04/03 13:03:16;;;;;;;3.10;2.22;;;;;;;9.74;47.88;100079.59;3590318;39;20127;-71